Observations for CARLISLE, United Kingdom (GNC)

KGNC 201655Z AUTO 06013KT 10SM SCT008 OVC016 20/17 A3006 RMK AO2 T01950174  
KGNC 201635Z AUTO 06016G22KT 10SM OVC014 20/17 A3006 RMK AO2 T02020171  
KGNC 201615Z AUTO 08012G17KT 10SM OVC016 23/19 A3004 RMK AO2 T02270185  
KGNC 201555Z AUTO 08010G17KT 10SM OVC018 23/18 A3004 RMK AO2 T02300184  
KGNC 201535Z AUTO 08013G16KT 10SM BKN018 OVC023 23/19 A3004 RMK AO2 T02330186   
KGNC 201515Z AUTO 09014KT 10SM OVC020 24/19 A3004 RMK AO2 T02350186 
KGNC 201455Z AUTO 09015KT 10SM BKN018 BKN024 24/19 A3003 RMK AO2 T02350186  
KGNC 201435Z AUTO 09013KT 10SM BKN014 BKN019 24/19 A3001 RMK AO2 T02350189  
KGNC 201415Z AUTO 08013G17KT 10SM SCT015 24/19 A3000 RMK AO2 T02370191  
KGNC 201355Z AUTO 13005KT 10SM CLR 23/19 A2997 RMK AO2 T02340191
KGNC 201335Z AUTO 13004KT 10SM CLR 23/19 A2996 RMK AO2 T02300190
KGNC 201315Z AUTO 18005KT 10SM CLR 22/19 A2994 RMK AO2 T02210190
KGNC 201255Z AUTO 18005KT 10SM CLR 22/20 A2993 RMK AO2 T02150196
KGNC 201235Z AUTO 19004KT 10SM CLR 21/20 A2993 RMK AO2 T02060195
KGNC 201215Z AUTO 00000KT 10SM CLR 20/19 A2993 RMK AO2 T01990190
KGNC 201155Z AUTO 00000KT 10SM CLR 20/19 A2993 RMK AO2 T01970190 10243 20195
KGNC 201135Z AUTO 00000KT 10SM CLR 20/19 A2992 RMK AO2 T01970189
KGNC 201115Z AUTO 00000KT 10SM CLR 20/19 A2992 RMK AO2 T01970188
KGNC 201055Z AUTO 19003KT 10SM CLR 20/19 A2992 RMK AO2 T01990185
KGNC 201035Z AUTO 00000KT 10SM CLR 20/19 A2993 RMK AO2 T02030185
KGNC 201015Z AUTO 00000KT 10SM CLR 21/19 A2993 RMK AO2 T02060185
KGNC 200955Z AUTO 13003KT 10SM CLR 21/19 A2993 RMK AO2 T02080185
KGNC 200935Z AUTO 14003KT 10SM CLR 21/18 A2993 RMK AO2 T02100184
KGNC 200915Z AUTO 14005KT 10SM CLR 21/18 A2993 RMK AO2 T02130183
KGNC 200855Z AUTO 15006KT 10SM CLR 22/18 A2993 RMK AO2 T02160182
KGNC 200835Z AUTO 15006KT 10SM CLR 22/18 A2993 RMK AO2 T02200181
KGNC 200815Z AUTO 16006KT 10SM CLR 22/18 A2993 RMK AO2 T02220180
KGNC 200755Z AUTO 16007KT 10SM CLR 23/18 A2993 RMK AO2 T02250179
KGNC 200735Z AUTO 16008KT 10SM CLR 23/18 A2994 RMK AO2 T02270176
KGNC 200715Z AUTO 15009KT 10SM CLR 23/17 A2994 RMK AO2 T02300170
KGNC 200655Z AUTO 16008KT 10SM CLR 23/17 A2993 RMK AO2 T02320166
KGNC 200630Z AUTO 15008KT 10SM CLR 24/16 A2994 RMK AO2 T02380164
KGNC 200615Z AUTO 15008KT 10SM CLR 24/16 A2995 RMK AO2 T02420162
KGNC 200555Z AUTO 15008KT 10SM CLR 24/16 A2994 RMK AO2 T02440162 10323 20244 403320198  
KGNC 200535Z AUTO 15008KT 10SM CLR 25/16 A2994 RMK AO2 T02480163
KGNC 200515Z AUTO 15010KT 10SM CLR 25/16 A2994 RMK AO2 T02530162
KGNC 200455Z AUTO 15013KT 10SM CLR 26/16 A2994 RMK AO2 T02570163
KGNC 200435Z AUTO 14010KT 10SM CLR 26/17 A2994 RMK AO2 T02600166
KGNC 200415Z AUTO 14011KT 10SM CLR 26/17 A2994 RMK AO2 T02610167
KGNC 200355Z AUTO 13008KT 10SM CLR 26/17 A2993 RMK AO2 T02610167
KGNC 200335Z AUTO 14007KT 10SM CLR 26/17 A2992 RMK AO2 T02630167
KGNC 200315Z AUTO 13007KT 10SM CLR 27/17 A2992 RMK AO2 T02670165
KGNC 200255Z AUTO 13007KT 10SM CLR 28/16 A2991 RMK AO2 T02750162
KGNC 200235Z AUTO 13007KT 10SM CLR 28/16 A2990 RMK AO2 T02800158
KGNC 200215Z AUTO 13007KT 10SM CLR 29/15 A2990 RMK AO2 T02850152
KGNC 200155Z AUTO 13008KT 10SM CLR 30/15 A2989 RMK AO2 T02950151
KGNC 200135Z AUTO 13009KT 10SM CLR 30/15 A2989 RMK AO2 T03020146
KGNC 200115Z AUTO 13009KT 10SM CLR 31/14 A2990 RMK AO2 T03100140
KGNC 200055Z AUTO 14009KT 10SM CLR 32/14 A2990 RMK AO2 T03150139
KGNC 200035Z AUTO 13009KT 10SM CLR 32/14 A2990 RMK AO2 T03180140
KGNC 200015Z AUTO 12012KT 10SM CLR 32/14 A2990 RMK AO2 T03200143
KGNC 192355Z AUTO 13009G15KT 10SM CLR 32/15 A2991 RMK AO2 T03220148 10332 20303 
KGNC 192335Z AUTO 14010KT 10SM CLR 33/15 A2991 RMK AO2 T03270151
KGNC 192315Z AUTO 17005KT 10SM CLR 33/15 A2991 RMK AO2 T03280149
KGNC 192255Z AUTO 14010KT 10SM SCT060 33/15 A2992 RMK AO2 T03300151 
KGNC 192235Z AUTO 15006KT 10SM CLR 33/15 A2993 RMK AO2 T03270154
KGNC 192215Z AUTO 11004KT 10SM CLR 33/15 A2993 RMK AO2 T03270154
KGNC 192155Z AUTO 13008KT 100V170 10SM CLR 32/17 A2994 RMK AO2 T03210165
KGNC 192135Z AUTO 13009G14KT 10SM SCT055 32/17 A2995 RMK AO2 T03200169  
KGNC 192115Z AUTO 12010G15KT 10SM SCT050 33/17 A2996 RMK AO2 T03270172  
KGNC 192055Z AUTO 16011G15KT 10SM SCT050 33/17 A2996 RMK AO2 T03290170  
KGNC 192035Z AUTO 14012G16KT 10SM SCT050 33/17 A2996 RMK AO2 T03260173  
KGNC 192015Z AUTO 15006KT 10SM SCT050 SCT065 33/17 A2997 RMK AO2 T03250171  
KGNC 191955Z AUTO 13012G15KT 10SM SCT050 33/17 A2997 RMK AO2 T03260172  
KGNC 191935Z AUTO 15011G14KT 10SM SCT050 31/17 A2998 RMK AO2 T03140174  
KGNC 191915Z AUTO 15005KT 10SM SCT048 31/17 A2999 RMK AO2 T03060172 
KGNC 191855Z AUTO 16007KT 10SM SCT045 SCT050 32/18 A3000 RMK AO2 T03190179  
KGNC 191835Z AUTO 14007KT 10SM SCT044 31/18 A3000 RMK AO2 T03080178 
KGNC 191815Z AUTO 13008KT 10SM SCT044 31/18 A3002 RMK AO2 T03090180 
KGNC 191755Z AUTO 14005KT 10SM CLR 30/18 A3002 RMK AO2 T03010184 10303 20198
KGNC 191735Z AUTO 12006KT 10SM SCT037 30/18 A3002 RMK AO2 T02970184 
KGNC 191715Z AUTO 15008KT 10SM SCT037 29/19 A3002 RMK AO2 T02910187 
KGNC 191655Z AUTO 16008KT 10SM CLR 29/19 A3003 RMK AO2 T02900188
KGNC 191635Z AUTO 19006KT 10SM CLR 29/19 A3003 RMK AO2 T02880189
KGNC 191615Z AUTO 18005KT 10SM CLR 28/19 A3003 RMK AO2 T02830188